Time;durP1;ratioP1;P1;durP2;ratioP2;P2;SDS_P1;SDS_P2;PMS_P1;PMS_P2;Temp;Humidity;BMP_temperature;BMP_pressure;BME280_temperature;BME280_humidity;BME280_pressure;Samples;Min_cycle;Max_cycle;Signal;HPM_P1;HPM_P2
2021/11/23 05:01:57;;;;;;;38.92;31.38;;;;;;;6.72;100.00;95908.06;5287610;23;20104;-70
2021/11/23 05:04:23;;;;;;;38.97;32.45;;;;;;;6.63;100.00;95905.41;4949490;28;20448;-72
2021/11/23 05:06:49;;;;;;;40.47;32.17;;;;;;;6.69;100.00;95908.31;4948888;28;20517;-70
2021/11/23 05:09:14;;;;;;;38.22;28.42;;;;;;;6.72;100.00;95908.06;4966552;28;20046;-70
2021/11/23 05:11:45;;;;;;;33.92;28.73;;;;;;;6.64;100.00;95912.19;4967821;28;20031;-70
2021/11/23 05:14:11;;;;;;;38.70;31.05;;;;;;;6.65;100.00;95922.34;4968308;28;20062;-70
2021/11/23 05:16:36;;;;;;;39.33;29.65;;;;;;;6.73;100.00;95925.13;4965940;28;20105;-70
2021/11/23 05:19:02;;;;;;;41.20;33.75;;;;;;;6.71;100.00;95924.44;4961541;28;20024;-70
2021/11/23 05:21:27;;;;;;;43.90;34.00;;;;;;;6.77;100.00;95926.53;4931328;29;20038;-70
2021/11/23 05:23:53;;;;;;;39.05;31.20;;;;;;;6.71;100.00;95921.84;4949231;28;20126;-70
2021/11/23 05:26:18;;;;;;;45.83;33.00;;;;;;;6.72;100.00;95920.94;4966640;28;20088;-70
2021/11/23 05:28:44;;;;;;;39.08;31.58;;;;;;;6.79;100.00;95923.81;4951743;28;20733;-71
2021/11/23 05:31:09;;;;;;;40.95;31.90;;;;;;;6.76;100.00;95922.31;4968556;28;20077;-70
2021/11/23 05:33:35;;;;;;;51.15;36.78;;;;;;;6.74;100.00;95918.25;4968029;28;20054;-70
2021/11/23 05:36:00;;;;;;;42.05;31.98;;;;;;;6.73;100.00;95925.13;4969104;28;20118;-70
2021/11/23 05:38:26;;;;;;;44.30;32.05;;;;;;;6.80;100.00;95931.44;4949925;28;20042;-70
2021/11/23 05:40:51;;;;;;;52.13;37.22;;;;;;;6.75;100.00;95933.53;4967145;28;20022;-70
2021/11/23 05:43:17;;;;;;;42.65;32.60;;;;;;;6.72;100.00;95943.28;4966107;28;20052;-71
2021/11/23 05:45:43;;;;;;;59.65;41.22;;;;;;;6.79;100.00;95952.97;4965285;28;20023;-70
2021/11/23 05:48:09;;;;;;;60.53;44.72;;;;;;;6.74;100.00;95946.56;4931857;29;20137;-70
2021/11/23 05:50:34;;;;;;;60.80;42.03;;;;;;;6.65;100.00;95960.94;4932216;29;20122;-70
2021/11/23 05:53:01;;;;;;;54.58;39.20;;;;;;;6.68;100.00;95978.72;4947865;29;20106;-70
2021/11/23 05:55:28;;;;;;;59.97;43.28;;;;;;;6.68;100.00;96003.63;4947391;29;20027;-70
2021/11/23 05:57:53;;;;;;;47.35;37.92;;;;;;;6.77;100.00;96011.47;4949405;28;20035;-70
2021/11/23 06:00:18;;;;;;;71.72;47.90;;;;;;;6.71;100.00;96014.50;4946860;29;20027;-70
2021/11/23 06:02:44;;;;;;;61.55;43.05;;;;;;;6.77;100.00;96020.97;4947996;29;20633;-70
2021/11/23 06:05:09;;;;;;;57.70;42.72;;;;;;;6.76;100.00;96025.28;4946760;29;20034;-70
2021/11/23 06:07:35;;;;;;;52.00;40.72;;;;;;;6.81;100.00;96033.44;4951799;28;20035;-70
2021/11/23 06:10:00;;;;;;;62.92;44.60;;;;;;;6.85;100.00;96029.69;4960640;28;20035;-70
2021/11/23 06:12:30;;;;;;;59.85;39.22;;;;;;;6.80;100.00;96033.59;4947618;29;20031;-70
2021/11/23 06:14:57;;;;;;;70.05;48.28;;;;;;;6.83;100.00;96036.75;4932613;29;20066;-70
2021/11/23 06:17:22;;;;;;;55.75;42.15;;;;;;;6.96;100.00;96044.31;4948272;28;20091;-70
2021/11/23 06:19:49;;;;;;;52.80;41.60;;;;;;;7.06;100.00;96039.25;4948118;29;20035;-70
2021/11/23 06:22:15;;;;;;;57.60;41.95;;;;;;;7.10;100.00;96040.63;4946552;29;20024;-70
2021/11/23 06:24:40;;;;;;;64.40;46.33;;;;;;;7.10;100.00;96043.19;4948367;28;20447;-70
2021/11/23 06:27:06;;;;;;;63.45;47.13;;;;;;;7.07;100.00;96043.44;4931175;29;20034;-70
2021/11/23 06:29:31;;;;;;;66.72;48.40;;;;;;;7.05;100.00;96041.00;4947919;29;20535;-70
2021/11/23 06:31:58;;;;;;;59.35;44.38;;;;;;;7.15;100.00;96044.47;4948852;29;20054;-70
2021/11/23 06:34:23;;;;;;;57.03;41.20;;;;;;;7.03;100.00;96047.22;4948905;28;20027;-70
2021/11/23 06:36:50;;;;;;;58.50;41.28;;;;;;;7.06;100.00;96052.13;4964321;28;20058;-72
2021/11/23 06:39:16;;;;;;;81.13;56.33;;;;;;;7.10;100.00;96058.66;4966001;28;20027;-70
2021/11/23 06:41:41;;;;;;;88.82;64.20;;;;;;;7.06;100.00;96060.66;4967325;28;20096;-70
2021/11/23 06:44:07;;;;;;;72.47;56.30;;;;;;;7.15;100.00;96059.09;4966519;28;20034;-72
2021/11/23 06:46:33;;;;;;;86.28;64.45;;;;;;;7.22;100.00;96060.25;4967600;28;20027;-70
2021/11/23 06:49:00;;;;;;;64.20;47.70;;;;;;;7.30;100.00;96061.28;4967992;28;20089;-70
2021/11/23 06:51:25;;;;;;;60.72;45.30;;;;;;;7.44;100.00;96057.59;4957196;28;20031;-71
2021/11/23 06:53:51;;;;;;;64.82;46.42;;;;;;;7.47;100.00;96052.19;4951261;29;20507;-70
2021/11/23 06:56:16;;;;;;;68.55;51.00;;;;;;;7.49;100.00;96034.84;4949946;29;20027;-70
2021/11/23 06:58:42;;;;;;;75.68;50.53;;;;;;;7.52;100.00;96032.00;4951422;29;20066;-70
2021/11/23 07:01:08;;;;;;;64.47;46.88;;;;;;;7.63;100.00;96019.06;4948969;28;20086;-71
2021/11/23 07:03:33;;;;;;;62.95;45.05;;;;;;;7.67;100.00;96015.31;4950656;29;20027;-71
2021/11/23 07:05:59;;;;;;;79.88;58.17;;;;;;;7.65;100.00;96001.69;4958203;28;20033;-70
2021/11/23 07:08:25;;;;;;;70.15;51.22;;;;;;;7.56;100.00;95999.88;4970143;28;20022;-70
2021/11/23 07:10:51;;;;;;;59.15;42.63;;;;;;;7.67;100.00;95996.44;4970470;28;20034;-70
2021/11/23 07:13:17;;;;;;;62.85;42.47;;;;;;;7.74;100.00;96011.25;4952402;28;20527;-71
2021/11/23 07:15:42;;;;;;;57.40;41.30;;;;;;;7.77;100.00;96011.00;4950195;28;20098;-71
2021/11/23 07:18:08;;;;;;;63.85;43.42;;;;;;;7.83;100.00;96014.84;4968020;28;20043;-71
2021/11/23 07:20:34;;;;;;;66.63;50.03;;;;;;;7.84;100.00;96016.47;4971874;28;20035;-71
2021/11/23 07:22:59;;;;;;;78.35;54.17;;;;;;;7.88;100.00;96016.09;4968686;28;20102;-71
2021/11/23 07:25:25;;;;;;;66.30;49.30;;;;;;;7.84;100.00;96017.28;4970530;28;20178;-71
2021/11/23 07:27:50;;;;;;;65.85;47.80;;;;;;;7.92;100.00;96008.91;4969469;28;20573;-71
2021/11/23 07:30:16;;;;;;;70.15;47.55;;;;;;;7.90;100.00;96003.88;4963708;28;20600;-71
2021/11/23 07:32:42;;;;;;;68.28;52.33;;;;;;;7.93;100.00;96011.34;4969728;28;20038;-71
2021/11/23 07:35:08;;;;;;;66.50;47.47;;;;;;;7.88;100.00;96007.53;4968442;28;20562;-71
2021/11/23 07:37:40;;;;;;;81.78;60.83;;;;;;;7.95;100.00;96021.56;4969960;28;20115;-70
2021/11/23 07:40:06;;;;;;;74.70;55.15;;;;;;;8.00;100.00;96026.31;4967877;28;20084;-70
2021/11/23 07:42:32;;;;;;;79.35;57.58;;;;;;;7.97;100.00;96028.22;4960281;28;20089;-70
2021/11/23 07:44:57;;;;;;;74.40;51.13;;;;;;;7.97;100.00;96022.22;4969073;28;20034;-71
2021/11/23 07:47:24;;;;;;;69.57;51.65;;;;;;;8.05;100.00;96014.69;4969509;28;20015;-71
2021/11/23 07:49:49;;;;;;;98.78;68.43;;;;;;;8.01;100.00;96002.16;4971416;28;20408;-71
2021/11/23 07:52:16;;;;;;;61.00;43.58;;;;;;;7.96;100.00;96007.72;4970660;28;20030;-71
2021/11/23 07:54:42;;;;;;;67.63;51.33;;;;;;;8.08;100.00;96000.69;4969668;28;20034;-71
2021/11/23 07:57:07;;;;;;;84.15;58.70;;;;;;;8.07;100.00;95989.56;4967727;28;20023;-71
2021/11/23 07:59:33;;;;;;;70.95;49.50;;;;;;;8.12;100.00;95979.69;4969787;28;20038;-71
2021/11/23 08:01:58;;;;;;;74.35;58.10;;;;;;;8.09;100.00;95979.13;4968508;28;20105;-71
2021/11/23 08:04:23;;;;;;;76.20;55.70;;;;;;;8.18;100.00;95983.50;4969168;28;20125;-71
2021/11/23 08:06:49;;;;;;;85.40;61.92;;;;;;;8.17;100.00;95981.84;4952097;28;20078;-71
2021/11/23 08:09:15;;;;;;;87.47;58.03;;;;;;;8.19;100.00;95993.69;4962355;28;20409;-71
2021/11/23 08:11:40;;;;;;;90.88;60.50;;;;;;;8.21;100.00;95990.97;4970842;28;20069;-71
2021/11/23 08:14:06;;;;;;;87.10;60.42;;;;;;;8.21;100.00;95989.22;4967181;28;20038;-71
2021/11/23 08:16:32;;;;;;;91.72;62.83;;;;;;;8.20;100.00;95979.84;4953011;28;20674;-71
2021/11/23 08:18:57;;;;;;;86.95;59.10;;;;;;;8.22;100.00;95974.56;4968036;28;20031;-71
2021/11/23 08:21:24;;;;;;;94.38;61.60;;;;;;;8.23;100.00;95978.75;4969022;28;20026;-71
2021/11/23 08:23:50;;;;;;;86.03;59.47;;;;;;;8.24;100.00;95982.97;4951975;28;20496;-71
2021/11/23 08:26:16;;;;;;;89.68;58.85;;;;;;;8.29;100.00;95973.09;4968415;28;20031;-71
2021/11/23 08:28:42;;;;;;;105.45;66.75;;;;;;;8.27;100.00;95974.97;4969335;28;20030;-71
2021/11/23 08:31:08;;;;;;;97.28;62.55;;;;;;;8.26;100.00;95981.91;4967999;28;20026;-73
2021/11/23 08:33:33;;;;;;;89.18;58.85;;;;;;;8.20;100.00;95987.59;4968596;28;20484;-71
2021/11/23 08:35:59;;;;;;;102.95;66.72;;;;;;;8.18;100.00;95994.66;4967341;28;20030;-71
2021/11/23 08:38:24;;;;;;;78.50;56.15;;;;;;;8.25;100.00;96002.69;4971010;28;20361;-71
2021/11/23 08:40:50;;;;;;;80.65;55.53;;;;;;;8.27;100.00;96000.78;4941332;28;20086;-71
2021/11/23 08:43:16;;;;;;;100.65;68.30;;;;;;;8.19;100.00;95996.25;4966071;28;20050;-71
2021/11/23 08:45:41;;;;;;;94.43;61.55;;;;;;;8.26;100.00;96005.13;4952046;28;20085;-71
2021/11/23 08:48:09;;;;;;;86.97;61.35;;;;;;;8.21;100.00;95990.97;4967460;28;20107;-71
2021/11/23 08:50:35;;;;;;;91.38;64.43;;;;;;;8.24;100.00;95993.31;4967850;28;20490;-71
2021/11/23 08:53:06;;;;;;;83.32;57.63;;;;;;;8.28;100.00;95979.22;4966791;28;20031;-71
2021/11/23 08:55:32;;;;;;;83.38;57.17;;;;;;;8.28;100.00;95981.81;4970018;28;20027;-71
2021/11/23 08:57:57;;;;;;;88.40;60.58;;;;;;;8.30;100.00;95962.66;4965298;28;20417;-71
2021/11/23 09:00:23;;;;;;;87.55;59.22;;;;;;;8.20;100.00;95966.94;4969030;28;20098;-71
2021/11/23 09:02:51;;;;;;;80.05;56.97;;;;;;;8.26;100.00;95963.00;4946352;28;20066;-71
2021/11/23 09:05:22;;;;;;;80.18;57.17;;;;;;;8.31;100.00;95953.16;4957557;28;20038;-70
2021/11/23 09:07:49;;;;;;;82.10;56.08;;;;;;;8.21;100.00;95922.13;4962038;28;20427;-71
2021/11/23 09:10:25;;;;;;;93.78;66.03;;;;;;;8.31;100.00;95922.19;4966318;28;20034;-71
2021/11/23 09:12:52;;;;;;;78.43;56.95;;;;;;;8.34;100.00;95915.00;4951286;28;20424;-71
2021/11/23 09:15:18;;;;;;;87.15;58.42;;;;;;;8.33;100.00;95909.97;4949949;28;20026;-71
2021/11/23 09:17:44;;;;;;;85.28;56.67;;;;;;;8.34;100.00;95917.59;4944468;28;20027;-71
2021/11/23 09:20:12;;;;;;;84.50;57.42;;;;;;;8.32;100.00;95927.19;4956423;28;20685;-71
2021/11/23 09:22:39;;;;;;;79.95;58.17;;;;;;;8.39;100.00;95906.84;4940384;28;20042;-71
2021/11/23 09:25:06;;;;;;;82.05;58.97;;;;;;;8.41;100.00;95887.69;4941850;28;20022;-71
2021/11/23 09:27:31;;;;;;;82.32;61.75;;;;;;;8.40;100.00;95891.25;4935313;29;20028;-71
2021/11/23 09:29:59;;;;;;;85.50;58.58;;;;;;;8.37;100.00;95873.44;4934252;28;20037;-70
2021/11/23 09:32:25;;;;;;;73.00;57.80;;;;;;;8.38;100.00;95894.91;4951360;28;20514;-71
2021/11/23 09:34:50;;;;;;;89.20;66.65;;;;;;;8.33;100.00;95899.63;4959862;28;20019;-70
2021/11/23 09:37:15;;;;;;;81.18;64.85;;;;;;;8.39;100.00;95925.72;4960226;28;20041;-70
2021/11/23 09:39:41;;;;;;;97.50;70.03;;;;;;;8.38;100.00;95941.38;4965353;28;20037;-70
2021/11/23 09:42:07;;;;;;;68.40;55.67;;;;;;;8.40;100.00;95963.50;4967383;28;20084;-71
2021/11/23 09:44:35;;;;;;;57.85;45.80;;;;;;;8.44;100.00;95967.44;4959348;28;20983;-71
2021/11/23 09:47:01;;;;;;;67.28;53.53;;;;;;;8.36;100.00;95974.22;4964999;28;20026;-71
2021/11/23 09:49:27;;;;;;;59.22;45.67;;;;;;;8.40;100.00;95984.16;4965743;28;20030;-71
2021/11/23 09:51:53;;;;;;;62.50;51.17;;;;;;;8.43;100.00;95985.66;4952489;28;20519;-71
2021/11/23 09:54:18;;;;;;;62.38;50.85;;;;;;;8.45;100.00;95986.31;4948213;28;20558;-71
2021/11/23 09:56:46;;;;;;;53.30;42.85;;;;;;;8.48;100.00;95986.06;4948782;28;20033;-70
2021/11/23 09:59:12;;;;;;;55.17;42.80;;;;;;;8.46;100.00;95985.38;4965477;28;20030;-71
2021/11/23 10:01:46;;;;;;;50.05;40.70;;;;;;;8.50;100.00;95988.53;4962386;28;20043;-70
2021/11/23 10:04:12;;;;;;;42.42;35.90;;;;;;;8.48;100.00;95984.28;4962230;28;20043;-70
2021/11/23 10:06:58;;;;;;;39.05;32.70;;;;;;;8.52;100.00;95982.28;4960475;28;20467;-70
2021/11/23 10:09:44;;;;;;;35.35;31.25;;;;;;;8.63;100.00;95977.00;4959511;28;20019;-71
2021/11/23 10:12:14;;;;;;;35.97;32.03;;;;;;;8.63;100.00;95979.59;4964793;28;20069;-71
2021/11/23 10:14:39;;;;;;;37.95;32.80;;;;;;;8.68;100.00;95974.81;4963990;28;20670;-70
2021/11/23 10:17:22;;;;;;;33.55;27.92;;;;;;;8.68;100.00;95955.94;4949058;28;20035;-70
2021/11/23 10:19:48;;;;;;;29.30;24.02;;;;;;;8.70;100.00;95954.84;4963781;28;20046;-71
2021/11/23 10:22:28;;;;;;;28.92;26.05;;;;;;;8.76;100.00;95927.69;4947394;28;20031;-70
2021/11/23 10:24:58;;;;;;;29.60;26.42;;;;;;;8.79;100.00;95905.00;4955581;28;20038;-70
2021/11/23 10:27:24;;;;;;;27.63;24.85;;;;;;;8.80;100.00;95892.88;4968473;28;20057;-70
2021/11/23 10:29:50;;;;;;;29.42;22.17;;;;;;;8.84;100.00;95892.47;4968844;28;20050;-70
2021/11/23 10:32:16;;;;;;;30.90;26.35;;;;;;;8.95;100.00;95870.84;4968430;28;20130;-70
2021/11/23 10:34:43;;;;;;;34.75;27.45;;;;;;;8.89;100.00;95856.69;4969356;28;20098;-69
2021/11/23 10:37:09;;;;;;;25.55;22.92;;;;;;;8.98;100.00;95839.56;4968147;28;20788;-70
2021/11/23 10:39:35;;;;;;;26.98;24.05;;;;;;;9.02;100.00;95819.44;4979766;28;20058;-70
2021/11/23 10:42:01;;;;;;;29.00;26.08;;;;;;;9.16;100.00;95769.88;4955781;28;20058;-70
2021/11/23 10:44:33;;;;;;;24.30;21.83;;;;;;;9.26;100.00;95716.41;4964878;28;20081;-70
2021/11/23 10:47:05;;;;;;;24.05;20.95;;;;;;;9.11;100.00;95679.91;4948467;28;20503;-70
2021/11/23 10:49:32;;;;;;;23.17;20.75;;;;;;;9.46;100.00;95673.97;4967730;28;20023;-70
2021/11/23 10:51:58;;;;;;;28.15;23.73;;;;;;;9.46;100.00;95643.78;4955260;28;20078;-69
2021/11/23 10:54:25;;;;;;;25.73;23.00;;;;;;;9.34;100.00;95585.47;4964675;28;20054;-69
2021/11/23 10:56:58;;;;;;;25.10;22.35;;;;;;;9.37;100.00;95571.47;4968148;28;20026;-70
2021/11/23 10:59:24;;;;;;;25.05;22.50;;;;;;;9.52;100.00;95551.88;4959231;28;20020;-70
2021/11/23 11:01:50;;;;;;;22.40;19.63;;;;;;;9.54;100.00;95504.22;4961810;28;20053;-70
2021/11/23 11:04:16;;;;;;;24.05;21.55;;;;;;;9.52;100.00;95262.31;4968108;28;20029;-69
2021/11/23 11:06:41;;;;;;;26.30;23.48;;;;;;;9.71;100.00;95243.94;4951186;28;20133;-70
2021/11/23 11:09:08;;;;;;;26.35;23.52;;;;;;;9.82;100.00;95224.75;4968576;28;20395;-70
2021/11/23 11:11:35;;;;;;;26.08;23.38;;;;;;;9.64;100.00;95206.75;4968610;28;20106;-70
2021/11/23 11:14:00;;;;;;;26.27;23.55;;;;;;;9.90;100.00;95196.28;4968048;28;20059;-70
2021/11/23 11:16:26;;;;;;;27.85;24.83;;;;;;;10.00;100.00;95179.63;4963015;28;20062;-70
2021/11/23 11:19:03;;;;;;;28.52;25.63;;;;;;;9.89;100.00;95172.19;4955605;28;20094;-70
2021/11/23 11:21:29;;;;;;;26.85;24.13;;;;;;;10.11;100.00;95163.00;4966572;28;20043;-70
2021/11/23 11:24:25;;;;;;;26.08;23.33;;;;;;;10.27;100.00;95147.47;4946208;28;20033;-72
2021/11/23 11:26:54;;;;;;;29.75;25.70;;;;;;;10.48;100.00;95127.03;4952781;28;20582;-73
2021/11/23 11:29:30;;;;;;;26.40;23.67;;;;;;;10.54;100.00;95113.44;4948587;28;20230;-73
2021/11/23 11:31:59;;;;;;;27.00;23.60;;;;;;;10.39;100.00;95111.69;4959071;28;20031;-73
2021/11/23 11:34:33;;;;;;;26.40;23.75;;;;;;;10.42;100.00;95119.13;4964264;28;20488;-71
2021/11/23 11:37:18;;;;;;;25.92;23.40;;;;;;;10.00;100.00;95130.47;4962780;28;20022;-71
2021/11/23 11:39:58;;;;;;;24.10;21.65;;;;;;;9.94;100.00;95122.56;4968984;28;20035;-70
2021/11/23 11:42:25;;;;;;;;;;;;;;;9.94;100.00;95125.97;4968909;28;20034;-71
2021/11/23 11:44:53;;;;;;;26.95;23.20;;;;;;;9.76;100.00;95134.84;4966233;28;19918;-70
2021/11/23 11:47:30;;;;;;;26.25;22.23;;;;;;;9.83;100.00;95139.22;4958814;28;20121;-70
2021/11/23 11:50:01;;;;;;;26.17;23.35;;;;;;;9.72;100.00;95141.31;4959919;28;20508;-70
2021/11/23 11:52:30;;;;;;;27.05;24.27;;;;;;;9.62;100.00;95146.63;4967445;28;20089;-70
2021/11/23 11:55:19;;;;;;;24.98;22.45;;;;;;;9.67;100.00;95144.38;4965166;28;20027;-70
2021/11/23 11:57:50;;;;;;;26.38;23.38;;;;;;;9.49;100.00;95143.72;4964316;28;20110;-70
2021/11/23 12:00:21;;;;;;;29.20;25.77;;;;;;;9.43;100.00;95152.09;4967453;28;20027;-71
2021/11/23 12:02:47;;;;;;;30.08;25.13;;;;;;;9.37;100.00;95168.25;4968333;28;20051;-71
2021/11/23 12:05:12;;;;;;;27.67;24.77;;;;;;;9.34;100.00;95163.41;4951930;28;20087;-70
2021/11/23 12:07:39;;;;;;;25.52;22.83;;;;;;;9.37;100.00;95160.50;4968083;28;20023;-70
2021/11/23 12:10:40;;;;;;;26.02;22.83;;;;;;;9.28;100.00;95156.28;4969406;28;20469;-70
2021/11/23 12:13:15;;;;;;;26.60;23.73;;;;;;;9.34;100.00;95163.41;4940749;28;20035;-69
2021/11/23 12:16:04;;;;;;;27.13;23.10;;;;;;;9.16;100.00;95155.75;4950450;28;20488;-70
2021/11/23 12:18:51;;;;;;;26.87;23.73;;;;;;;9.25;100.00;95179.81;4964626;28;20039;-70
2021/11/23 12:21:18;;;;;;;25.80;22.65;;;;;;;9.24;100.00;95183.38;4952932;28;20041;-71
2021/11/23 12:23:56;;;;;;;25.40;22.70;;;;;;;9.11;100.00;95183.84;4963036;28;20070;-70
2021/11/23 12:26:37;;;;;;;21.98;19.77;;;;;;;9.09;100.00;95190.91;4943917;28;20031;-70
2021/11/23 12:29:05;;;;;;;24.67;19.65;;;;;;;9.05;100.00;95189.63;4958422;28;20030;-70
2021/11/23 12:31:38;;;;;;;20.33;18.33;;;;;;;9.00;100.00;95194.44;4958600;28;20034;-70
2021/11/23 12:34:05;;;;;;;22.05;19.77;;;;;;;8.93;100.00;95189.06;4946911;28;20501;-71
2021/11/23 12:36:49;;;;;;;19.98;17.85;;;;;;;8.90;100.00;95198.91;4964077;28;20030;-70
2021/11/23 12:39:17;;;;;;;22.45;19.60;;;;;;;8.92;100.00;95200.38;4956198;28;20046;-70
2021/11/23 12:41:43;;;;;;;23.15;20.65;;;;;;;8.90;100.00;95184.22;4955680;28;20077;-70
2021/11/23 12:44:26;;;;;;;22.48;19.73;;;;;;;8.83;100.00;95200.50;4945009;28;20073;-71
2021/11/23 12:46:59;;;;;;;19.88;17.73;;;;;;;8.89;100.00;95199.88;4961133;28;20039;-70
2021/11/23 12:49:25;;;;;;;24.92;18.75;;;;;;;8.78;100.00;95207.88;4940485;28;20062;-70
2021/11/23 12:51:58;;;;;;;21.75;18.40;;;;;;;8.84;100.00;95197.75;4956625;28;20551;-70
2021/11/23 12:54:26;;;;;;;18.83;16.88;;;;;;;8.79;100.00;95194.03;4965234;28;20034;-70
2021/11/23 12:57:03;;;;;;;20.13;18.10;;;;;;;8.80;100.00;95203.34;4958455;28;20023;-70
2021/11/23 12:59:34;;;;;;;20.13;17.85;;;;;;;8.60;100.00;95197.63;4955798;28;20818;-70
2021/11/23 13:02:02;;;;;;;19.67;17.73;;;;;;;8.61;100.00;95198.41;4954042;28;20047;-70
2021/11/23 13:04:39;;;;;;;17.70;15.90;;;;;;;8.65;100.00;95203.13;4962746;28;20097;-70
2021/11/23 13:07:07;;;;;;;18.65;16.80;;;;;;;8.62;100.00;95202.63;4963020;28;20480;-70
2021/11/23 13:09:53;;;;;;;21.83;16.42;;;;;;;8.57;100.00;95203.09;4965297;28;20031;-69
2021/11/23 13:12:22;;;;;;;18.00;16.20;;;;;;;8.66;100.00;95207.34;4949785;28;20769;-70
2021/11/23 13:15:01;;;;;;;19.38;17.48;;;;;;;8.50;100.00;95209.81;4964838;28;20033;-69
2021/11/23 13:17:51;;;;;;;15.10;13.70;;;;;;;8.41;100.00;95205.56;4946684;29;20115;-69
2021/11/23 13:20:20;;;;;;;15.30;13.75;;;;;;;8.43;100.00;95204.47;4958140;28;20034;-69
2021/11/23 13:22:50;;;;;;;14.85;13.45;;;;;;;8.35;100.00;95206.97;4966595;28;20045;-69
2021/11/23 13:25:17;;;;;;;15.35;13.75;;;;;;;8.39;100.00;95203.13;4965727;28;20034;-70
2021/11/23 13:27:43;;;;;;;14.85;13.30;;;;;;;8.38;100.00;95211.03;4966682;28;20484;-70
2021/11/23 13:30:36;;;;;;;15.60;14.00;;;;;;;8.42;100.00;95208.00;4962025;28;20030;-69
2021/11/23 13:33:09;;;;;;;16.73;13.77;;;;;;;8.45;100.00;95210.25;4962725;28;20039;-70
2021/11/23 13:35:35;;;;;;;17.50;14.55;;;;;;;8.32;100.00;95207.25;4963950;28;20031;-70
2021/11/23 13:38:00;;;;;;;14.63;13.10;;;;;;;8.29;100.00;95205.00;4965310;28;20404;-70
2021/11/23 13:40:26;;;;;;;15.02;13.48;;;;;;;8.17;100.00;95197.63;4953510;28;20027;-69
2021/11/23 13:42:52;;;;;;;16.23;13.32;;;;;;;8.23;100.00;95199.59;4947273;28;20491;-70
2021/11/23 13:45:22;;;;;;;14.98;12.85;;;;;;;8.17;100.00;95205.34;4949653;28;20029;-70
2021/11/23 13:47:49;;;;;;;15.60;14.00;;;;;;;8.22;100.00;95203.16;4965732;28;20041;-70
2021/11/23 13:50:16;;;;;;;15.95;14.25;;;;;;;8.27;100.00;95206.06;4966002;28;20110;-70
2021/11/23 13:52:41;;;;;;;16.77;14.70;;;;;;;8.15;100.00;95205.50;4966100;28;20504;-70
2021/11/23 13:55:12;;;;;;;18.73;13.32;;;;;;;8.16;100.00;95206.31;4965780;28;20066;-70
2021/11/23 13:57:41;;;;;;;13.05;11.73;;;;;;;8.16;100.00;95209.69;4965834;28;20058;-69
2021/11/23 14:00:12;;;;;;;14.13;12.77;;;;;;;8.16;100.00;95216.63;4961069;28;20066;-70
2021/11/23 14:02:40;;;;;;;16.52;13.40;;;;;;;8.14;100.00;95214.22;4965529;28;20057;-69
2021/11/23 14:05:06;;;;;;;14.15;11.68;;;;;;;8.07;100.00;95212.34;4952618;28;20035;-69
2021/11/23 14:07:56;;;;;;;13.75;12.30;;;;;;;8.05;100.00;95203.97;4940015;28;20030;-70
2021/11/23 14:10:29;;;;;;;16.70;13.27;;;;;;;8.06;100.00;95210.75;4956999;28;20042;-71
2021/11/23 14:13:03;;;;;;;13.50;12.15;;;;;;;8.03;100.00;95216.22;4953143;28;20496;-70
2021/11/23 14:15:46;;;;;;;12.43;11.18;;;;;;;8.00;100.00;95221.66;4956324;28;20133;-70
2021/11/23 14:18:18;;;;;;;19.48;12.48;;;;;;;8.04;100.00;95222.97;4945555;28;20026;-70
2021/11/23 14:20:43;;;;;;;13.32;11.73;;;;;;;7.95;100.00;95232.41;4959626;28;20567;-70
2021/11/23 14:23:09;;;;;;;15.68;11.70;;;;;;;8.00;100.00;95234.53;4963947;28;20110;-69
2021/11/23 14:25:35;;;;;;;12.50;11.20;;;;;;;7.92;100.00;95230.94;4957032;28;20027;-70
2021/11/23 14:28:03;;;;;;;14.60;12.05;;;;;;;7.85;100.00;95229.91;4947576;28;20029;-69
2021/11/23 14:30:30;;;;;;;13.73;11.48;;;;;;;7.94;100.00;95236.75;4957654;28;20241;-70
2021/11/23 14:32:56;;;;;;;12.75;11.38;;;;;;;7.90;100.00;95232.84;4940519;28;20479;-70
2021/11/23 14:35:21;;;;;;;13.10;11.73;;;;;;;7.86;100.00;95231.53;4964254;28;20027;-70
2021/11/23 14:37:47;;;;;;;15.52;11.80;;;;;;;7.77;100.00;95237.56;4959933;28;20030;-70
2021/11/23 14:40:13;;;;;;;24.13;14.18;;;;;;;7.85;100.00;95244.56;4942794;28;20031;-71
2021/11/23 14:42:38;;;;;;;17.00;12.13;;;;;;;7.89;100.00;95245.91;4961200;28;20101;-69
2021/11/23 14:45:05;;;;;;;13.63;11.32;;;;;;;7.74;100.00;95247.34;4964589;28;20543;-70
2021/11/23 14:47:30;;;;;;;13.18;10.77;;;;;;;7.74;100.00;95248.16;4964659;28;20457;-69
2021/11/23 14:49:56;;;;;;;14.23;12.82;;;;;;;7.67;100.00;95254.06;4964423;28;20054;-70
2021/11/23 14:52:21;;;;;;;13.35;11.38;;;;;;;7.73;100.00;95259.44;4947817;28;20057;-70
2021/11/23 14:54:47;;;;;;;15.48;12.70;;;;;;;7.73;100.00;95274.09;4961462;28;20034;-70
2021/11/23 14:57:12;;;;;;;16.60;12.93;;;;;;;7.66;100.00;95270.47;4955879;28;20023;-70
2021/11/23 14:59:38;;;;;;;13.98;12.18;;;;;;;7.67;100.00;95267.75;4964640;28;20046;-70
2021/11/23 15:02:04;;;;;;;16.98;13.60;;;;;;;7.67;100.00;95267.75;4963896;28;20168;-70
2021/11/23 15:04:29;;;;;;;19.25;12.55;;;;;;;7.70;100.00;95272.63;4953516;28;20054;-70
2021/11/23 15:06:55;;;;;;;14.27;12.05;;;;;;;7.72;100.00;95275.03;4959409;28;20035;-70
2021/11/23 15:09:21;;;;;;;17.88;12.45;;;;;;;7.62;100.00;95272.53;4965165;28;20046;-72
2021/11/23 15:11:47;;;;;;;15.93;13.77;;;;;;;7.74;100.00;95275.69;4965133;28;20027;-70
2021/11/23 15:14:13;;;;;;;16.98;12.93;;;;;;;7.65;100.00;95279.97;4968626;28;20463;-70
2021/11/23 15:16:38;;;;;;;20.35;13.07;;;;;;;7.66;100.00;95286.75;4969019;28;20203;-70
2021/11/23 15:19:05;;;;;;;19.73;12.57;;;;;;;7.66;100.00;95285.94;4950781;28;20241;-69
2021/11/23 15:21:30;;;;;;;16.88;13.30;;;;;;;7.64;100.00;95280.91;4967317;28;20037;-70
2021/11/23 15:23:56;;;;;;;15.50;13.57;;;;;;;7.62;100.00;95282.84;4969193;28;20026;-70
2021/11/23 15:26:21;;;;;;;18.33;14.07;;;;;;;7.49;100.00;95287.53;4968599;28;20038;-70
2021/11/23 15:28:47;;;;;;;16.20;12.73;;;;;;;7.50;100.00;95296.88;4967836;28;20023;-70
2021/11/23 15:31:13;;;;;;;16.38;14.52;;;;;;;7.43;100.00;95298.41;4966890;28;20105;-70
2021/11/23 15:33:38;;;;;;;18.50;14.45;;;;;;;7.47;100.00;95296.34;4968866;28;20051;-70
2021/11/23 15:36:04;;;;;;;20.52;15.38;;;;;;;7.46;100.00;95302.44;4966688;28;20027;-70
2021/11/23 15:38:29;;;;;;;18.02;14.02;;;;;;;7.46;100.00;95302.44;4948353;28;20493;-71
2021/11/23 15:40:59;;;;;;;15.65;13.98;;;;;;;7.43;100.00;95306.94;4964469;28;20113;-70
2021/11/23 15:43:26;;;;;;;17.13;14.97;;;;;;;7.35;100.00;95300.88;4966443;28;20030;-69
2021/11/23 15:45:51;;;;;;;17.30;13.90;;;;;;;7.28;100.00;95310.94;4967418;28;20516;-73
2021/11/23 15:48:17;;;;;;;15.02;13.50;;;;;;;7.43;100.00;95313.84;4966948;28;20031;-70
2021/11/23 15:50:42;;;;;;;19.63;14.57;;;;;;;7.40;100.00;95325.25;4966815;28;20081;-70
2021/11/23 15:53:08;;;;;;;17.42;14.70;;;;;;;7.33;100.00;95320.81;4949943;28;20035;-71
2021/11/23 15:55:34;;;;;;;19.80;14.73;;;;;;;7.27;100.00;95324.78;4963435;28;20504;-70
2021/11/23 15:58:00;;;;;;;15.60;14.02;;;;;;;7.18;100.00;95328.19;4947691;28;20027;-70
2021/11/23 16:00:27;;;;;;;17.90;14.30;;;;;;;7.15;100.00;95335.38;4944285;28;20102;-70
2021/11/23 16:02:54;;;;;;;14.43;12.95;;;;;;;7.27;100.00;95340.22;4968239;28;20066;-70
2021/11/23 16:05:19;;;;;;;29.65;21.77;;;;;;;7.25;100.00;95331.03;4947180;28;20071;-70
2021/11/23 16:07:45;;;;;;;17.38;14.43;;;;;;;7.10;100.00;95335.78;4955335;28;20065;-72
2021/11/23 16:10:10;;;;;;;14.48;12.65;;;;;;;7.14;100.00;95333.75;4967654;28;20476;-72
2021/11/23 16:12:36;;;;;;;16.40;12.82;;;;;;;7.17;100.00;95343.78;4966262;28;20023;-72
2021/11/23 16:15:02;;;;;;;14.68;13.15;;;;;;;7.13;100.00;95339.84;4947267;28;20035;-73
2021/11/23 16:17:29;;;;;;;15.82;13.30;;;;;;;7.17;100.00;95342.03;4967009;28;20023;-73
2021/11/23 16:19:55;;;;;;;16.75;13.75;;;;;;;7.14;100.00;95344.06;4951135;28;20122;-70
2021/11/23 16:22:20;;;;;;;15.55;12.90;;;;;;;7.16;100.00;95342.19;4965662;28;20575;-69